Time;durP1;ratioP1;P1;durP2;ratioP2;P2;SDS_P1;SDS_P2;PMS_P1;PMS_P2;Temp;Humidity;BMP_temperature;BMP_pressure;BME280_temperature;BME280_humidity;BME280_pressure;Samples;Min_cycle;Max_cycle;Signal;HPM_P1;HPM_P2
2023/02/10 00:00:24;;;;;;;173.13;68.22;;;;;;;;;;6148944;28;20070;-69
2023/02/10 00:03:27;;;;;;;70.20;30.05;;;;;;;;;;6149744;28;20062;-67
2023/02/10 00:06:28;;;;;;;37.30;16.80;;;;;;;;;;6148388;28;20118;-67
2023/02/10 00:09:30;;;;;;;26.38;15.20;;;;;;;;;;6150550;28;20063;-67
2023/02/10 00:12:32;;;;;;;27.48;14.82;;;;;;;;;;6150301;28;20054;-67
2023/02/10 00:15:33;;;;;;;30.20;15.38;;;;;;;;;;6149106;28;20066;-67
2023/02/10 00:18:36;;;;;;;31.40;15.48;;;;;;;;;;6152326;28;20047;-67
2023/02/10 00:21:38;;;;;;;26.02;14.50;;;;;;;;;;6150696;28;20047;-67
2023/02/10 00:24:40;;;;;;;27.42;15.35;;;;;;;;;;6149025;28;20054;-67
2023/02/10 00:27:41;;;;;;;34.05;16.42;;;;;;;;;;6150323;28;20051;-67
2023/02/10 00:30:43;;;;;;;31.95;16.30;;;;;;;;;;6149581;28;20345;-66
2023/02/10 00:33:46;;;;;;;30.42;15.60;;;;;;;;;;6149166;28;20071;-67
2023/02/10 00:36:49;;;;;;;31.20;16.85;;;;;;;;;;6148779;28;20098;-67
2023/02/10 00:39:51;;;;;;;31.52;16.40;;;;;;;;;;6150622;28;20059;-67
2023/02/10 00:42:53;;;;;;;34.75;17.85;;;;;;;;;;6148175;28;20059;-67
2023/02/10 00:45:54;;;;;;;31.92;16.40;;;;;;;;;;6150042;28;20059;-67
2023/02/10 00:48:57;;;;;;;31.23;16.20;;;;;;;;;;6148923;28;20040;-67
2023/02/10 00:51:59;;;;;;;31.80;15.73;;;;;;;;;;6150008;28;20061;-67
2023/02/10 00:55:01;;;;;;;30.88;17.42;;;;;;;;;;6149205;28;20059;-67
2023/02/10 00:58:02;;;;;;;36.63;16.90;;;;;;;;;;6147645;28;20339;-67
2023/02/10 01:01:04;;;;;;;35.03;17.30;;;;;;;;;;6146191;28;20047;-67
2023/02/10 01:04:07;;;;;;;36.85;17.58;;;;;;;;;;6150121;28;20078;-67
2023/02/10 01:07:09;;;;;;;34.22;16.70;;;;;;;;;;6148208;28;20331;-67
2023/02/10 01:10:11;;;;;;;44.22;17.92;;;;;;;;;;6146704;28;20047;-67
2023/02/10 01:13:14;;;;;;;35.28;17.52;;;;;;;;;;6146197;28;20059;-67
2023/02/10 01:16:17;;;;;;;35.88;18.58;;;;;;;;;;6146272;28;20055;-67
2023/02/10 01:19:20;;;;;;;33.33;17.90;;;;;;;;;;6148730;28;20056;-68
2023/02/10 01:22:21;;;;;;;35.75;17.88;;;;;;;;;;6148831;28;20300;-67
2023/02/10 01:25:23;;;;;;;35.90;17.02;;;;;;;;;;6145202;28;20050;-67
2023/02/10 01:28:25;;;;;;;35.33;17.73;;;;;;;;;;6148792;28;20051;-67
2023/02/10 01:31:27;;;;;;;37.88;18.73;;;;;;;;;;6149137;28;20069;-68
2023/02/10 01:34:30;;;;;;;34.65;18.17;;;;;;;;;;6144694;28;20101;-67
2023/02/10 01:37:31;;;;;;;37.63;18.63;;;;;;;;;;6148496;28;20091;-67
2023/02/10 01:40:33;;;;;;;39.55;18.73;;;;;;;;;;6147205;28;20401;-67
2023/02/10 01:43:54;;;;;;;31.88;17.35;;;;;;;;;;6148575;28;20159;-67
2023/02/10 01:46:56;;;;;;;37.20;19.42;;;;;;;;;;6150809;28;20283;-67
2023/02/10 01:49:59;;;;;;;36.20;18.17;;;;;;;;;;6146407;28;20055;-67
2023/02/10 01:53:01;;;;;;;35.00;18.95;;;;;;;;;;6146378;28;20058;-67
2023/02/10 01:56:03;;;;;;;37.10;18.55;;;;;;;;;;6146543;28;20090;-68
2023/02/10 01:59:05;;;;;;;41.30;19.95;;;;;;;;;;6147967;28;20081;-68
2023/02/10 02:02:07;;;;;;;38.03;19.85;;;;;;;;;;6145634;28;20059;-68
2023/02/10 02:05:21;;;;;;;36.67;19.40;;;;;;;;;;6146862;28;20065;-68
2023/02/10 02:08:25;;;;;;;40.55;20.38;;;;;;;;;;6151042;28;20336;-67
2023/02/10 02:11:32;;;;;;;38.63;19.33;;;;;;;;;;6147467;28;20055;-67
2023/02/10 02:14:38;;;;;;;38.70;19.90;;;;;;;;;;6150385;28;20268;-67
2023/02/10 02:17:44;;;;;;;40.95;20.05;;;;;;;;;;6149183;28;20059;-67
2023/02/10 02:21:08;;;;;;;46.45;20.20;;;;;;;;;;6145952;28;20047;-67
2023/02/10 02:24:28;;;;;;;42.75;19.83;;;;;;;;;;6150351;28;20063;-67
2023/02/10 02:27:45;;;;;;;41.90;20.50;;;;;;;;;;6146998;28;20054;-68
2023/02/10 02:31:03;;;;;;;40.30;19.55;;;;;;;;;;6143178;28;20051;-67
2023/02/10 02:34:09;;;;;;;40.25;19.42;;;;;;;;;;6149559;28;20236;-67
2023/02/10 02:37:13;;;;;;;35.90;19.17;;;;;;;;;;6146183;28;20039;-67
2023/02/10 02:40:17;;;;;;;37.92;17.15;;;;;;;;;;6148832;28;20122;-67
2023/02/10 02:43:19;;;;;;;35.93;17.30;;;;;;;;;;6150619;28;20047;-67
2023/02/10 02:46:29;;;;;;;31.38;15.40;;;;;;;;;;6146025;28;20530;-67
2023/02/10 02:49:38;;;;;;;29.98;15.63;;;;;;;;;;6147494;28;20055;-67
2023/02/10 02:52:49;;;;;;;31.80;15.30;;;;;;;;;;6145886;28;20055;-67
2023/02/10 02:56:02;;;;;;;30.58;15.05;;;;;;;;;;6148636;28;22002;-67
2023/02/10 02:59:10;;;;;;;29.13;15.38;;;;;;;;;;6147398;28;20062;-67
2023/02/10 03:02:13;;;;;;;31.67;15.85;;;;;;;;;;6145597;28;20051;-67
2023/02/10 03:05:20;;;;;;;29.43;15.73;;;;;;;;;;6147197;28;20059;-68
2023/02/10 03:08:22;;;;;;;36.35;16.63;;;;;;;;;;6145202;28;20066;-67
2023/02/10 03:11:24;;;;;;;33.97;17.10;;;;;;;;;;6147125;28;20047;-67
2023/02/10 03:14:25;;;;;;;30.48;16.98;;;;;;;;;;6146886;28;20059;-67
2023/02/10 03:17:27;;;;;;;36.83;15.52;;;;;;;;;;6147323;28;20047;-68
2023/02/10 03:20:30;;;;;;;37.03;16.75;;;;;;;;;;6147607;28;20074;-67
2023/02/10 03:23:32;;;;;;;32.33;16.55;;;;;;;;;;6146676;28;20056;-71
2023/02/10 03:26:34;;;;;;;33.75;17.25;;;;;;;;;;6150076;28;20059;-70
2023/02/10 03:29:35;;;;;;;31.40;15.75;;;;;;;;;;6143495;28;20059;-70
2023/02/10 03:32:37;;;;;;;35.80;16.63;;;;;;;;;;6145181;28;20047;-71
2023/02/10 03:35:40;;;;;;;32.88;16.85;;;;;;;;;;6148125;28;20058;-70
2023/02/10 03:38:42;;;;;;;31.42;16.25;;;;;;;;;;6146718;28;20055;-69
2023/02/10 03:41:43;;;;;;;35.53;16.40;;;;;;;;;;6146973;28;20099;-70
2023/02/10 03:44:45;;;;;;;34.25;16.60;;;;;;;;;;6147839;28;20051;-70
2023/02/10 03:47:47;;;;;;;33.08;16.98;;;;;;;;;;6145626;28;20414;-72
2023/02/10 03:50:50;;;;;;;35.55;17.15;;;;;;;;;;6146699;28;20047;-68
2023/02/10 03:53:51;;;;;;;37.30;16.17;;;;;;;;;;6142716;28;20264;-69
2023/02/10 03:56:53;;;;;;;28.95;15.77;;;;;;;;;;6147361;28;20039;-69
2023/02/10 03:59:55;;;;;;;33.38;16.88;;;;;;;;;;6147129;28;20066;-68
2023/02/10 04:02:57;;;;;;;31.08;15.55;;;;;;;;;;6146909;28;20055;-68
2023/02/10 04:06:00;;;;;;;40.65;16.83;;;;;;;;;;6146625;28;20048;-69
2023/02/10 04:09:01;;;;;;;34.15;17.02;;;;;;;;;;6146030;28;20287;-68
2023/02/10 04:12:03;;;;;;;31.23;16.42;;;;;;;;;;6145910;28;20047;-68
2023/02/10 04:15:06;;;;;;;39.72;17.77;;;;;;;;;;6148220;28;20053;-69
2023/02/10 04:18:08;;;;;;;37.28;17.23;;;;;;;;;;6149759;28;20063;-69
2023/02/10 04:21:12;;;;;;;37.85;16.25;;;;;;;;;;6148276;28;20139;-68
2023/02/10 04:24:13;;;;;;;35.88;16.52;;;;;;;;;;6150154;28;20271;-69
2023/02/10 04:27:15;;;;;;;35.17;16.30;;;;;;;;;;6149521;28;20048;-69
2023/02/10 04:30:17;;;;;;;41.22;17.45;;;;;;;;;;6148185;28;20052;-68
2023/02/10 04:33:19;;;;;;;32.60;16.75;;;;;;;;;;6150700;28;20047;-68
2023/02/10 04:36:22;;;;;;;30.13;15.40;;;;;;;;;;6148224;28;20079;-68
2023/02/10 04:39:24;;;;;;;36.65;17.00;;;;;;;;;;6151103;28;20051;-69
2023/02/10 04:42:29;;;;;;;32.97;16.20;;;;;;;;;;6148392;28;20047;-68
2023/02/10 04:45:31;;;;;;;34.17;16.90;;;;;;;;;;6149360;28;20052;-69
2023/02/10 04:48:33;;;;;;;39.05;16.98;;;;;;;;;;6149989;28;20065;-68
2023/02/10 04:51:36;;;;;;;38.22;15.50;;;;;;;;;;6147101;28;20054;-68
2023/02/10 04:54:38;;;;;;;34.25;15.48;;;;;;;;;;6150956;28;20055;-68
2023/02/10 04:57:40;;;;;;;33.42;16.17;;;;;;;;;;6148784;28;20204;-69
2023/02/10 05:00:41;;;;;;;37.13;16.98;;;;;;;;;;6148432;28;20235;-68
2023/02/10 05:03:43;;;;;;;32.35;16.85;;;;;;;;;;6146777;28;20059;-69
2023/02/10 05:06:46;;;;;;;30.98;14.98;;;;;;;;;;6146390;28;20051;-68
2023/02/10 05:09:48;;;;;;;36.50;16.38;;;;;;;;;;6150049;28;20048;-69
2023/02/10 05:12:49;;;;;;;36.22;16.63;;;;;;;;;;6146698;28;20047;-68
2023/02/10 05:15:51;;;;;;;34.58;16.58;;;;;;;;;;6147402;28;20110;-68
2023/02/10 05:18:53;;;;;;;38.55;15.98;;;;;;;;;;6150986;28;20078;-68
2023/02/10 05:21:56;;;;;;;43.15;16.58;;;;;;;;;;6148225;28;20061;-68
2023/02/10 05:24:57;;;;;;;31.50;15.70;;;;;;;;;;6149009;28;20043;-69
2023/02/10 05:27:59;;;;;;;42.40;16.65;;;;;;;;;;6148555;28;20063;-69
2023/02/10 05:31:01;;;;;;;34.50;16.80;;;;;;;;;;6145001;28;20121;-68
2023/02/10 05:34:02;;;;;;;35.90;17.55;;;;;;;;;;6149286;28;20355;-68
2023/02/10 05:37:05;;;;;;;33.38;16.25;;;;;;;;;;6148701;28;20059;-69
2023/02/10 05:40:08;;;;;;;35.78;16.27;;;;;;;;;;6149274;28;20336;-68
2023/02/10 05:43:09;;;;;;;32.60;16.33;;;;;;;;;;6148823;28;20271;-69
2023/02/10 05:46:11;;;;;;;31.45;15.93;;;;;;;;;;6147288;28;20063;-69
2023/02/10 05:49:13;;;;;;;36.83;17.00;;;;;;;;;;6147942;28;20070;-68
2023/02/10 05:52:16;;;;;;;37.97;16.45;;;;;;;;;;6146832;28;20050;-68
2023/02/10 05:55:18;;;;;;;43.13;17.98;;;;;;;;;;6149294;28;20058;-69
2023/02/10 05:58:19;;;;;;;39.40;16.75;;;;;;;;;;6146786;28;20055;-68
2023/02/10 06:01:21;;;;;;;34.55;17.00;;;;;;;;;;6147035;28;20063;-69
2023/02/10 06:04:23;;;;;;;40.78;17.40;;;;;;;;;;6148267;28;20801;-68
2023/02/10 06:07:26;;;;;;;36.75;18.02;;;;;;;;;;6147887;28;20055;-68
2023/02/10 06:10:28;;;;;;;34.85;16.33;;;;;;;;;;6146560;28;20058;-68
2023/02/10 06:13:30;;;;;;;35.30;17.08;;;;;;;;;;6147919;28;20043;-68
2023/02/10 06:16:32;;;;;;;35.75;17.77;;;;;;;;;;6145585;28;20511;-66
2023/02/10 06:19:34;;;;;;;33.83;16.00;;;;;;;;;;6145189;28;20075;-70
2023/02/10 06:22:37;;;;;;;35.75;16.85;;;;;;;;;;6148898;28;20267;-69
2023/02/10 06:25:38;;;;;;;38.92;17.45;;;;;;;;;;6146999;28;20051;-70
2023/02/10 06:28:40;;;;;;;42.22;18.38;;;;;;;;;;6144856;28;20272;-70
2023/02/10 06:31:42;;;;;;;40.38;18.30;;;;;;;;;;6147091;28;20147;-71
2023/02/10 06:34:45;;;;;;;40.30;17.45;;;;;;;;;;6148477;28;20063;-68
2023/02/10 06:37:48;;;;;;;45.17;17.95;;;;;;;;;;6145810;28;20358;-72
2023/02/10 06:40:50;;;;;;;33.75;16.63;;;;;;;;;;6142701;28;20063;-68
2023/02/10 06:43:52;;;;;;;35.42;16.77;;;;;;;;;;6149493;28;20055;-68
2023/02/10 06:46:53;;;;;;;35.20;17.52;;;;;;;;;;6144236;28;20062;-69
2023/02/10 06:49:55;;;;;;;33.95;17.63;;;;;;;;;;6146059;28;20055;-68
2023/02/10 06:52:58;;;;;;;34.55;16.92;;;;;;;;;;6147780;28;20062;-67
2023/02/10 06:56:00;;;;;;;37.30;17.20;;;;;;;;;;6145496;28;20056;-68
2023/02/10 06:59:01;;;;;;;34.95;17.52;;;;;;;;;;6146769;28;20208;-68
2023/02/10 07:02:04;;;;;;;40.90;17.88;;;;;;;;;;6148534;28;20103;-68
2023/02/10 07:05:07;;;;;;;41.63;17.35;;;;;;;;;;6144509;28;20054;-68
2023/02/10 07:08:11;;;;;;;39.10;18.10;;;;;;;;;;6146605;28;20375;-68
2023/02/10 07:11:12;;;;;;;37.05;17.65;;;;;;;;;;6145166;28;20390;-68
2023/02/10 07:14:14;;;;;;;41.05;18.65;;;;;;;;;;6148260;28;20062;-68
2023/02/10 07:17:16;;;;;;;37.85;18.63;;;;;;;;;;6144923;28;20128;-68
2023/02/10 07:20:17;;;;;;;30.08;16.48;;;;;;;;;;6145301;28;20122;-68
2023/02/10 07:23:21;;;;;;;33.53;17.50;;;;;;;;;;6146264;28;20054;-68
2023/02/10 07:26:22;;;;;;;33.05;17.52;;;;;;;;;;6145095;28;20193;-68
2023/02/10 07:29:24;;;;;;;34.30;18.42;;;;;;;;;;6147267;28;20059;-68
2023/02/10 07:32:26;;;;;;;35.58;17.05;;;;;;;;;;6143997;28;20061;-68
2023/02/10 07:35:27;;;;;;;33.80;18.73;;;;;;;;;;6142270;28;20232;-69
2023/02/10 07:38:30;;;;;;;38.58;18.80;;;;;;;;;;6144882;28;20350;-68
2023/02/10 07:41:32;;;;;;;34.15;18.95;;;;;;;;;;6145685;28;20217;-67
2023/02/10 07:44:33;;;;;;;33.65;17.38;;;;;;;;;;6141726;28;20055;-67
2023/02/10 07:47:35;;;;;;;41.05;19.65;;;;;;;;;;6144655;28;20066;-69
2023/02/10 07:50:37;;;;;;;40.38;19.02;;;;;;;;;;6148797;28;20122;-68
2023/02/10 07:53:42;;;;;;;41.33;20.73;;;;;;;;;;6149413;28;20054;-68
2023/02/10 07:56:44;;;;;;;37.50;19.40;;;;;;;;;;6146494;28;20063;-70
2023/02/10 07:59:45;;;;;;;36.35;18.60;;;;;;;;;;6145845;28;20236;-68
2023/02/10 08:02:47;;;;;;;34.67;19.50;;;;;;;;;;6151078;28;20350;-67
2023/02/10 08:05:49;;;;;;;40.72;19.27;;;;;;;;;;6148202;28;20059;-68
2023/02/10 08:08:53;;;;;;;37.65;19.83;;;;;;;;;;6152009;28;20067;-68
2023/02/10 08:11:54;;;;;;;38.45;20.02;;;;;;;;;;6148072;28;20063;-67
2023/02/10 08:14:56;;;;;;;39.03;20.00;;;;;;;;;;6150987;28;20146;-69
2023/02/10 08:17:59;;;;;;;39.75;19.42;;;;;;;;;;6150526;28;20051;-68
2023/02/10 08:21:01;;;;;;;36.28;20.80;;;;;;;;;;6146916;28;20099;-67
2023/02/10 08:24:04;;;;;;;40.20;20.80;;;;;;;;;;6150334;28;20094;-67
2023/02/10 08:27:05;;;;;;;36.47;21.23;;;;;;;;;;6151407;28;20051;-67
2023/02/10 08:30:10;;;;;;;40.03;20.05;;;;;;;;;;6148074;28;20070;-68
2023/02/10 08:33:11;;;;;;;43.30;21.15;;;;;;;;;;6149926;28;20055;-68
2023/02/10 08:36:15;;;;;;;43.38;21.80;;;;;;;;;;6150521;28;20109;-68
2023/02/10 08:39:17;;;;;;;38.17;21.08;;;;;;;;;;6149721;28;20090;-67
2023/02/10 08:42:19;;;;;;;38.50;21.65;;;;;;;;;;6149808;28;20110;-68
2023/02/10 08:45:21;;;;;;;41.28;22.70;;;;;;;;;;6147021;28;20106;-68
2023/02/10 08:48:23;;;;;;;39.30;21.17;;;;;;;;;;6149760;28;20323;-68
2023/02/10 08:51:24;;;;;;;41.40;21.77;;;;;;;;;;6147556;28;20119;-67
2023/02/10 08:54:27;;;;;;;43.28;21.70;;;;;;;;;;6150827;28;20060;-68
2023/02/10 08:57:29;;;;;;;40.80;22.25;;;;;;;;;;6147936;28;21800;-68
2023/02/10 09:00:30;;;;;;;37.72;22.20;;;;;;;;;;6151732;28;20051;-68
2023/02/10 09:03:32;;;;;;;47.50;22.95;;;;;;;;;;6149108;28;20055;-68
2023/02/10 09:06:38;;;;;;;42.35;22.42;;;;;;;;;;6149286;28;20047;-68
2023/02/10 09:09:42;;;;;;;47.67;22.50;;;;;;;;;;6150662;28;20058;-68
2023/02/10 09:12:45;;;;;;;38.92;22.15;;;;;;;;;;6147169;28;20056;-68
2023/02/10 09:15:46;;;;;;;41.13;21.77;;;;;;;;;;6146841;28;20056;-68
2023/02/10 09:18:48;;;;;;;40.40;22.23;;;;;;;;;;6148018;28;20335;-68
2023/02/10 09:21:50;;;;;;;42.10;22.10;;;;;;;;;;6147381;28;20062;-68
2023/02/10 09:24:53;;;;;;;50.53;23.90;;;;;;;;;;6147831;28;20629;-68
2023/02/10 09:27:57;;;;;;;40.58;22.35;;;;;;;;;;6150559;28;20401;-69
2023/02/10 09:30:58;;;;;;;41.17;23.30;;;;;;;;;;6150155;28;20047;-67
2023/02/10 09:34:00;;;;;;;38.55;21.45;;;;;;;;;;6147070;28;20404;-68
2023/02/10 09:37:02;;;;;;;39.42;22.17;;;;;;;;;;6146732;28;20119;-68
2023/02/10 09:40:06;;;;;;;42.53;22.75;;;;;;;;;;6152110;28;20055;-68
2023/02/10 09:43:19;;;;;;;36.88;21.15;;;;;;;;;;6147381;28;20047;-68
2023/02/10 09:46:28;;;;;;;37.28;20.92;;;;;;;;;;6147154;28;20082;-67
2023/02/10 09:49:49;;;;;;;35.88;20.17;;;;;;;;;;6146840;28;20115;-68
2023/02/10 09:52:58;;;;;;;40.50;21.42;;;;;;;;;;6147742;28;21250;-68
2023/02/10 09:56:03;;;;;;;38.63;21.52;;;;;;;;;;6147809;28;20055;-68
2023/02/10 09:59:06;;;;;;;34.20;20.80;;;;;;;;;;6147225;28;20051;-68
2023/02/10 10:02:15;;;;;;;31.80;19.53;;;;;;;;;;6147339;28;20051;-68
2023/02/10 10:05:23;;;;;;;32.67;20.35;;;;;;;;;;6148761;28;20075;-68
2023/02/10 10:08:30;;;;;;;31.55;19.75;;;;;;;;;;6147101;28;20335;-68
2023/02/10 10:11:38;;;;;;;34.97;19.55;;;;;;;;;;6147389;28;20063;-68
2023/02/10 10:14:43;;;;;;;29.02;18.00;;;;;;;;;;6147133;28;20047;-68
2023/02/10 10:18:00;;;;;;;30.42;17.90;;;;;;;;;;6148607;28;20245;-68
2023/02/10 10:21:06;;;;;;;29.13;16.85;;;;;;;;;;6144938;28;20074;-68
2023/02/10 10:24:18;;;;;;;28.92;18.48;;;;;;;;;;6145627;28;20049;-69
2023/02/10 10:27:28;;;;;;;26.63;17.80;;;;;;;;;;6147663;28;20296;-68
2023/02/10 10:30:36;;;;;;;27.77;17.85;;;;;;;;;;6148390;28;20063;-68
2023/02/10 10:33:46;;;;;;;28.90;18.52;;;;;;;;;;6146419;28;20047;-68
2023/02/10 10:36:50;;;;;;;26.30;17.42;;;;;;;;;;6144758;28;20346;-68
2023/02/10 10:39:54;;;;;;;26.25;16.63;;;;;;;;;;6144634;28;20106;-68
2023/02/10 10:42:59;;;;;;;27.53;17.77;;;;;;;;;;6149064;28;20062;-68
2023/02/10 10:46:04;;;;;;;25.67;16.58;;;;;;;;;;6145723;28;20482;-68
2023/02/10 10:49:07;;;;;;;28.70;17.83;;;;;;;;;;6145142;28;20102;-68
2023/02/10 10:52:24;;;;;;;27.63;17.88;;;;;;;;;;6146902;28;20119;-68
2023/02/10 10:55:32;;;;;;;27.90;17.95;;;;;;;;;;6147297;28;20338;-69
2023/02/10 10:58:38;;;;;;;25.73;17.67;;;;;;;;;;6144515;28;20142;-67
2023/02/10 11:01:42;;;;;;;26.90;17.70;;;;;;;;;;6146034;28;20106;-68
2023/02/10 11:04:45;;;;;;;25.33;17.17;;;;;;;;;;6145703;28;20059;-69
2023/02/10 11:07:49;;;;;;;28.40;17.50;;;;;;;;;;6146768;28;20557;-69
2023/02/10 11:10:55;;;;;;;28.92;17.45;;;;;;;;;;6147321;28;20474;-69
2023/02/10 11:13:58;;;;;;;26.75;16.60;;;;;;;;;;6146912;28;20090;-70
2023/02/10 11:17:01;;;;;;;26.70;15.97;;;;;;;;;;6145627;28;20065;-70
2023/02/10 11:20:06;;;;;;;27.40;16.43;;;;;;;;;;6148053;28;20123;-69
2023/02/10 11:23:14;;;;;;;22.50;15.43;;;;;;;;;;6148357;28;20055;-69
2023/02/10 11:26:21;;;;;;;25.35;15.38;;;;;;;;;;6148463;28;20657;-69
2023/02/10 11:29:24;;;;;;;27.92;16.88;;;;;;;;;;6148619;28;20066;-68
2023/02/10 11:32:32;;;;;;;24.37;16.00;;;;;;;;;;6149286;28;20159;-69
2023/02/10 11:35:34;;;;;;;24.67;15.65;;;;;;;;;;6151735;28;20190;-70
2023/02/10 11:38:37;;;;;;;25.77;15.77;;;;;;;;;;6153031;28;20082;-70
2023/02/10 11:41:39;;;;;;;24.27;15.32;;;;;;;;;;6154267;28;20078;-69
2023/02/10 11:44:42;;;;;;;26.05;16.33;;;;;;;;;;6150991;28;20051;-70
2023/02/10 11:47:43;;;;;;;26.42;16.20;;;;;;;;;;6149998;28;20059;-69
2023/02/10 11:50:45;;;;;;;25.83;15.52;;;;;;;;;;6151491;28;20051;-69
2023/02/10 11:53:48;;;;;;;26.45;16.58;;;;;;;;;;6151313;28;20214;-70
2023/02/10 12:00:23;;;;;;;25.52;16.45;;;;;;;;;;6148328;28;20334;-70
2023/02/10 12:03:39;;;;;;;25.65;16.10;;;;;;;;;;6152566;28;20053;-69
2023/02/10 12:06:48;;;;;;;30.25;16.85;;;;;;;;;;6150204;28;20047;-70
2023/02/10 12:09:54;;;;;;;25.40;16.15;;;;;;;;;;6150811;28;20059;-70
2023/02/10 12:13:03;;;;;;;23.75;15.20;;;;;;;;;;6149475;28;20282;-70
2023/02/10 12:16:12;;;;;;;24.73;15.88;;;;;;;;;;6151887;28;20222;-69
2023/02/10 12:19:21;;;;;;;23.50;16.95;;;;;;;;;;6150780;28;20047;-70
2023/02/10 12:22:28;;;;;;;26.35;16.30;;;;;;;;;;6148634;28;20083;-70
2023/02/10 12:25:36;;;;;;;24.83;16.38;;;;;;;;;;6149089;28;20059;-70
2023/02/10 12:28:44;;;;;;;27.80;17.55;;;;;;;;;;6151793;28;20047;-69
2023/02/10 12:31:53;;;;;;;23.77;16.83;;;;;;;;;;6148267;28;20085;-69
2023/02/10 12:35:08;;;;;;;25.00;17.27;;;;;;;;;;6149451;28;20083;-67
2023/02/10 12:38:25;;;;;;;25.52;17.05;;;;;;;;;;6154926;28;20055;-70
2023/02/10 12:41:35;;;;;;;25.77;16.73;;;;;;;;;;6151141;28;20054;-68
2023/02/10 12:44:46;;;;;;;26.85;17.92;;;;;;;;;;6152431;28;20102;-67
2023/02/10 12:47:54;;;;;;;27.95;16.70;;;;;;;;;;6148943;28;20108;-69
2023/02/10 12:51:08;;;;;;;27.17;16.08;;;;;;;;;;6151208;28;20067;-68
2023/02/10 12:54:13;;;;;;;26.65;15.77;;;;;;;;;;6150817;28;20106;-69
2023/02/10 12:57:19;;;;;;;26.67;16.25;;;;;;;;;;6149167;28;20071;-70
2023/02/10 13:00:25;;;;;;;23.60;16.60;;;;;;;;;;6149843;28;20051;-71
2023/02/10 13:03:32;;;;;;;32.97;17.13;;;;;;;;;;6149279;28;20078;-68
2023/02/10 13:06:38;;;;;;;26.33;16.55;;;;;;;;;;6150689;28;20055;-70
2023/02/10 13:09:44;;;;;;;26.38;16.77;;;;;;;;;;6151316;28;20094;-68
2023/02/10 13:12:47;;;;;;;26.15;17.20;;;;;;;;;;6150069;28;20306;-70
2023/02/10 13:15:51;;;;;;;27.30;17.30;;;;;;;;;;6150293;28;20110;-69
2023/02/10 13:19:00;;;;;;;26.88;17.00;;;;;;;;;;6148946;28;20463;-69
2023/02/10 13:22:05;;;;;;;27.40;17.27;;;;;;;;;;6151389;28;20449;-69
2023/02/10 13:25:12;;;;;;;28.05;16.67;;;;;;;;;;6146140;28;20047;-70
2023/02/10 13:28:20;;;;;;;24.67;15.82;;;;;;;;;;6149313;28;20055;-70
2023/02/10 13:31:31;;;;;;;26.45;16.95;;;;;;;;;;6146091;28;20060;-69
2023/02/10 13:34:35;;;;;;;24.70;16.85;;;;;;;;;;6150336;28;20071;-69
2023/02/10 13:37:38;;;;;;;;;;;;;;;;;;6152202;28;20047;-69
2023/02/10 13:40:47;;;;;;;29.05;16.63;;;;;;;;;;6148848;28;19974;-69
2023/02/10 13:43:55;;;;;;;28.15;16.20;;;;;;;;;;6145012;28;20063;-68
2023/02/10 13:47:13;;;;;;;27.45;17.80;;;;;;;;;;6149401;28;20055;-70
2023/02/10 13:50:23;;;;;;;31.73;16.70;;;;;;;;;;6149293;28;20055;-69
2023/02/10 13:53:38;;;;;;;27.23;17.63;;;;;;;;;;6148132;28;20065;-69
2023/02/10 13:56:40;;;;;;;24.23;16.95;;;;;;;;;;6147390;28;20055;-69
2023/02/10 13:59:42;;;;;;;26.30;17.20;;;;;;;;;;6149519;28;20102;-69
2023/02/10 14:02:45;;;;;;;27.02;15.85;;;;;;;;;;6147772;28;20046;-70
2023/02/10 14:05:55;;;;;;;23.17;16.45;;;;;;;;;;6150758;28;20062;-69
2023/02/10 14:09:03;;;;;;;24.77;16.17;;;;;;;;;;6147769;28;20094;-69
2023/02/10 14:12:20;;;;;;;24.10;16.20;;;;;;;;;;6144770;28;20051;-69
2023/02/10 14:15:24;;;;;;;30.50;16.38;;;;;;;;;;6148990;28;20071;-69
2023/02/10 14:18:27;;;;;;;29.40;15.82;;;;;;;;;;6147632;28;20243;-69
2023/02/10 14:21:39;;;;;;;26.13;16.73;;;;;;;;;;6147601;28;20055;-70
2023/02/10 14:24:44;;;;;;;26.65;17.15;;;;;;;;;;6147103;28;20098;-69
2023/02/10 14:27:49;;;;;;;25.63;16.98;;;;;;;;;;6147892;28;20051;-70
2023/02/10 14:30:53;;;;;;;28.30;17.73;;;;;;;;;;6147902;28;20062;-69
2023/02/10 14:33:56;;;;;;;25.00;16.55;;;;;;;;;;6148495;28;20247;-69
2023/02/10 14:37:01;;;;;;;28.00;16.80;;;;;;;;;;6146150;28;20073;-69
2023/02/10 14:40:04;;;;;;;24.88;16.60;;;;;;;;;;6147567;28;20067;-71
2023/02/10 14:43:06;;;;;;;27.83;17.75;;;;;;;;;;6145402;28;20043;-69
2023/02/10 14:46:07;;;;;;;26.95;17.90;;;;;;;;;;6146227;28;20051;-69
2023/02/10 14:49:11;;;;;;;22.15;16.73;;;;;;;;;;6145332;28;20665;-68
2023/02/10 14:52:24;;;;;;;26.70;17.52;;;;;;;;;;6145739;28;20837;-73
2023/02/10 14:55:28;;;;;;;28.83;18.00;;;;;;;;;;6148890;28;20059;-71
2023/02/10 14:58:31;;;;;;;27.73;17.92;;;;;;;;;;6145230;28;20043;-72
2023/02/10 15:01:34;;;;;;;26.23;17.45;;;;;;;;;;6149640;28;20078;-70
2023/02/10 15:04:36;;;;;;;24.40;17.33;;;;;;;;;;6146317;28;20095;-70
2023/02/10 15:07:42;;;;;;;31.15;17.90;;;;;;;;;;6146470;28;20334;-70
2023/02/10 15:10:49;;;;;;;28.73;17.88;;;;;;;;;;6148444;28;20063;-70
2023/02/10 15:13:51;;;;;;;25.52;17.35;;;;;;;;;;6144191;28;20058;-69
2023/02/10 15:16:53;;;;;;;27.67;18.52;;;;;;;;;;6146090;28;20064;-70
2023/02/10 15:19:57;;;;;;;24.13;17.35;;;;;;;;;;6146096;28;20054;-71
2023/02/10 15:23:14;;;;;;;28.90;18.50;;;;;;;;;;6145476;28;20059;-70
2023/02/10 15:26:18;;;;;;;26.00;17.70;;;;;;;;;;6145272;28;20055;-70
2023/02/10 15:29:21;;;;;;;30.45;17.70;;;;;;;;;;6145920;28;20051;-70
2023/02/10 15:32:22;;;;;;;29.55;18.40;;;;;;;;;;6147207;28;20368;-70
2023/02/10 15:35:24;;;;;;;26.80;17.60;;;;;;;;;;6147492;28;20250;-70
2023/02/10 15:38:28;;;;;;;26.95;17.73;;;;;;;;;;6143769;28;20066;-69
2023/02/10 15:41:34;;;;;;;24.73;17.75;;;;;;;;;;6146064;28;20048;-69
2023/02/10 15:44:39;;;;;;;31.63;17.30;;;;;;;;;;6145838;28;20048;-69
2023/02/10 15:47:45;;;;;;;24.98;17.13;;;;;;;;;;6146357;28;20074;-69
2023/02/10 15:50:47;;;;;;;25.98;16.88;;;;;;;;;;6148555;28;20168;-70
2023/02/10 15:53:51;;;;;;;25.13;16.23;;;;;;;;;;6148142;28;20146;-70
2023/02/10 15:56:57;;;;;;;25.83;16.15;;;;;;;;;;6144057;28;20051;-70
2023/02/10 15:59:59;;;;;;;26.10;16.73;;;;;;;;;;6146468;28;20055;-70
2023/02/10 16:03:00;;;;;;;24.55;16.73;;;;;;;;;;6144106;28;20055;-69
2023/02/10 16:06:02;;;;;;;28.17;15.98;;;;;;;;;;6146511;28;20146;-70
2023/02/10 16:09:05;;;;;;;30.75;16.42;;;;;;;;;;6146611;28;20258;-67
2023/02/10 16:12:07;;;;;;;24.07;15.60;;;;;;;;;;6146723;28;20063;-69
2023/02/10 16:15:13;;;;;;;26.83;15.02;;;;;;;;;;6149833;28;20055;-70
2023/02/10 16:18:16;;;;;;;30.13;16.17;;;;;;;;;;6151206;28;20063;-69
2023/02/10 16:21:18;;;;;;;27.70;14.57;;;;;;;;;;6146726;28;20120;-70
2023/02/10 16:24:21;;;;;;;26.58;15.45;;;;;;;;;;6148503;28;20122;-69
2023/02/10 16:27:22;;;;;;;24.65;14.90;;;;;;;;;;6148386;28;20047;-69
2023/02/10 16:30:26;;;;;;;26.65;15.60;;;;;;;;;;6152004;28;20055;-69
2023/02/10 16:33:30;;;;;;;27.88;16.60;;;;;;;;;;6147680;28;20055;-69
2023/02/10 16:36:32;;;;;;;26.20;14.90;;;;;;;;;;6151156;28;20063;-68
2023/02/10 16:39:35;;;;;;;25.40;14.07;;;;;;;;;;6148220;28;20051;-70
2023/02/10 16:42:36;;;;;;;25.67;14.80;;;;;;;;;;6148976;28;20082;-69
2023/02/10 16:45:38;;;;;;;25.98;14.85;;;;;;;;;;6148455;28;20067;-70
2023/02/10 16:48:40;;;;;;;25.98;14.50;;;;;;;;;;6150031;28;20078;-69
2023/02/10 16:51:43;;;;;;;29.20;16.00;;;;;;;;;;6151475;28;20058;-70
2023/02/10 16:54:46;;;;;;;26.77;15.05;;;;;;;;;;6150125;28;20055;-69
2023/02/10 16:57:48;;;;;;;26.77;15.77;;;;;;;;;;6148181;28;20074;-68
2023/02/10 17:00:50;;;;;;;27.60;15.07;;;;;;;;;;6148908;28;20059;-68
2023/02/10 17:03:52;;;;;;;27.30;14.90;;;;;;;;;;6149652;28;20397;-69
2023/02/10 17:06:54;;;;;;;32.45;15.23;;;;;;;;;;6149164;28;20247;-70
2023/02/10 17:09:57;;;;;;;27.70;14.07;;;;;;;;;;6151112;28;20051;-69
2023/02/10 17:12:59;;;;;;;27.70;14.80;;;;;;;;;;6148202;28;20047;-69
2023/02/10 17:16:01;;;;;;;27.25;14.63;;;;;;;;;;6149132;28;20097;-69
2023/02/10 17:19:03;;;;;;;27.13;15.07;;;;;;;;;;6147523;28;20047;-69
2023/02/10 17:22:05;;;;;;;32.40;15.75;;;;;;;;;;6147443;28;20048;-70
2023/02/10 17:25:08;;;;;;;28.50;14.02;;;;;;;;;;6150433;28;20066;-68
2023/02/10 17:28:11;;;;;;;29.10;14.33;;;;;;;;;;6147532;28;20055;-69
2023/02/10 17:31:16;;;;;;;28.02;13.98;;;;;;;;;;6146501;28;20251;-68
2023/02/10 17:34:18;;;;;;;26.23;13.35;;;;;;;;;;6149682;28;20243;-67
2023/02/10 17:37:20;;;;;;;31.30;14.23;;;;;;;;;;6148832;28;20081;-68
2023/02/10 17:43:32;;;;;;;31.38;14.45;;;;;;;;;;6146858;28;20073;-68
2023/02/10 17:46:34;;;;;;;25.67;13.13;;;;;;;;;;6148219;28;20066;-69
2023/02/10 17:49:36;;;;;;;28.88;14.32;;;;;;;;;;6146443;28;20043;-68
2023/02/10 17:52:37;;;;;;;28.92;15.30;;;;;;;;;;6147825;28;20294;-69
2023/02/10 17:55:43;;;;;;;32.65;15.73;;;;;;;;;;6148013;28;20055;-69